createdAt,value
2018-11-10T00:01:15.881Z,64.30
2018-11-10T00:03:43.588Z,64.40
2018-11-10T00:06:11.522Z,64.40
2018-11-10T00:08:39.246Z,64.20
2018-11-10T00:11:06.895Z,64.20
2018-11-10T00:13:34.582Z,64.20
2018-11-10T00:16:02.242Z,64.20
2018-11-10T00:18:29.918Z,64.30
2018-11-10T00:20:57.590Z,64.30
2018-11-10T00:23:25.401Z,64.20
2018-11-10T00:25:53.071Z,64.20
2018-11-10T00:28:20.774Z,64.30
2018-11-10T00:30:48.427Z,64.30
2018-11-10T00:33:16.108Z,64.20
2018-11-10T00:35:43.822Z,64.20
2018-11-10T00:38:11.515Z,64.20
2018-11-10T00:40:39.158Z,64.20
2018-11-10T00:43:06.850Z,64.10
2018-11-10T00:45:34.518Z,64.20
2018-11-10T00:48:02.191Z,64.20
2018-11-10T00:50:29.863Z,64.30
2018-11-10T00:52:57.863Z,64.20
2018-11-10T00:55:25.546Z,64.00
2018-11-10T00:57:53.226Z,64.20
2018-11-10T01:00:20.918Z,64.20
2018-11-10T01:02:48.590Z,64.10
2018-11-10T01:05:16.242Z,64.20
2018-11-10T01:07:43.945Z,64.10
2018-11-10T01:10:12.750Z,64.20
2018-11-10T01:12:40.547Z,64.20
2018-11-10T01:15:09.078Z,64.10
2018-11-10T01:17:36.862Z,64.00
2018-11-10T01:20:05.720Z,64.10
2018-11-10T01:22:33.890Z,64.00
2018-11-10T01:25:02.023Z,64.00
2018-11-10T01:27:30.015Z,64.10
2018-11-10T01:29:57.677Z,64.00
2018-11-10T01:32:25.389Z,64.00
2018-11-10T01:34:53.070Z,64.00
2018-11-10T01:37:20.735Z,63.90
2018-11-10T01:39:48.409Z,63.90
2018-11-10T01:42:16.097Z,63.90
2018-11-10T01:44:43.819Z,64.10
2018-11-10T01:47:11.479Z,63.90
2018-11-10T01:49:39.158Z,63.80
2018-11-10T01:52:06.810Z,63.80
2018-11-10T01:54:34.478Z,63.80
2018-11-10T01:57:02.141Z,64.00
2018-11-10T01:59:29.806Z,63.70
2018-11-10T02:01:57.458Z,63.60
2018-11-10T02:04:25.117Z,63.70
2018-11-10T02:06:52.897Z,63.70
2018-11-10T02:09:20.506Z,63.70
2018-11-10T02:11:48.180Z,63.60
2018-11-10T02:14:15.866Z,63.50
2018-11-10T02:16:43.548Z,63.60
2018-11-10T02:19:11.237Z,63.60
2018-11-10T02:21:38.910Z,63.50
2018-11-10T02:24:06.582Z,63.50
2018-11-10T02:26:34.281Z,63.50
2018-11-10T02:29:01.954Z,63.60
2018-11-10T02:31:29.609Z,63.50
2018-11-10T02:33:57.274Z,63.50
2018-11-10T02:36:24.928Z,63.50
2018-11-10T02:38:52.769Z,63.50
2018-11-10T02:41:20.275Z,63.50
2018-11-10T02:43:49.251Z,63.50
2018-11-10T02:46:16.901Z,63.50
2018-11-10T02:48:44.584Z,63.50
2018-11-10T02:51:12.235Z,63.50
2018-11-10T02:53:39.922Z,63.60
2018-11-10T02:56:07.590Z,63.60
2018-11-10T02:58:35.342Z,63.50
2018-11-10T03:01:03.026Z,63.40
2018-11-10T03:03:30.678Z,63.50
2018-11-10T03:05:58.353Z,63.50
2018-11-10T03:08:26.058Z,63.50
2018-11-10T03:10:53.818Z,63.40
2018-11-10T03:13:21.408Z,63.50
2018-11-10T03:15:49.074Z,63.50
2018-11-10T03:18:16.734Z,63.40
2018-11-10T03:20:44.399Z,63.30
2018-11-10T03:23:12.042Z,63.30
2018-11-10T03:25:39.754Z,63.30
2018-11-10T03:28:07.415Z,63.40
2018-11-10T03:30:35.075Z,63.40
2018-11-10T03:33:02.738Z,63.40
2018-11-10T03:35:30.430Z,63.40
2018-11-10T03:37:58.070Z,63.40
2018-11-10T03:40:25.799Z,63.30
2018-11-10T03:42:53.445Z,63.30
2018-11-10T03:45:21.126Z,63.30
2018-11-10T03:47:48.774Z,63.30
2018-11-10T03:50:16.458Z,63.30
2018-11-10T03:52:44.103Z,63.40
2018-11-10T03:55:11.783Z,63.40
2018-11-10T03:57:39.435Z,63.40
2018-11-10T04:00:09.665Z,63.20
2018-11-10T04:02:37.326Z,63.40
2018-11-10T04:05:05.052Z,63.30
2018-11-10T04:07:32.695Z,63.30
2018-11-10T04:10:00.379Z,63.30
2018-11-10T04:12:28.274Z,63.40
2018-11-10T04:14:55.963Z,63.30
2018-11-10T04:17:23.614Z,63.40
2018-11-10T04:19:51.298Z,63.40
2018-11-10T04:22:25.443Z,63.30
2018-11-10T04:24:53.103Z,63.30
2018-11-10T04:27:20.782Z,63.30
2018-11-10T04:29:48.693Z,63.30
2018-11-10T04:32:16.407Z,63.30
2018-11-10T04:34:44.086Z,63.30
2018-11-10T04:37:11.782Z,63.30
2018-11-10T04:39:39.467Z,63.30
2018-11-10T04:42:07.130Z,63.40
2018-11-10T04:44:34.776Z,63.30
2018-11-10T04:47:02.455Z,63.80
2018-11-10T04:49:30.120Z,63.90
2018-11-10T04:51:57.794Z,64.00
2018-11-10T04:54:25.459Z,64.20
2018-11-10T04:56:53.179Z,64.00
2018-11-10T04:59:20.805Z,63.80
2018-11-10T05:01:48.673Z,63.90
2018-11-10T05:04:16.338Z,63.80
2018-11-10T05:06:44.010Z,63.80
2018-11-10T05:09:12.059Z,63.90
2018-11-10T05:11:40.087Z,63.70
2018-11-10T05:14:07.942Z,63.80
2018-11-10T05:16:35.615Z,63.80
2018-11-10T05:19:03.278Z,63.80
2018-11-10T05:21:30.929Z,63.80
2018-11-10T05:23:58.595Z,63.80
2018-11-10T05:26:26.283Z,63.80
2018-11-10T05:28:53.971Z,63.80
2018-11-10T05:31:21.646Z,63.70
2018-11-10T05:33:49.307Z,63.70
2018-11-10T05:36:16.977Z,63.60
2018-11-10T05:38:44.630Z,63.70
2018-11-10T05:41:12.318Z,63.60
2018-11-10T05:43:40.043Z,63.70
2018-11-10T05:46:07.728Z,63.70
2018-11-10T05:48:35.387Z,63.80
2018-11-10T05:51:03.054Z,63.80
2018-11-10T05:53:30.745Z,63.90
2018-11-10T05:55:58.502Z,63.90
2018-11-10T05:58:26.169Z,63.90
2018-11-10T06:00:53.818Z,63.90
2018-11-10T06:03:21.520Z,64.00
2018-11-10T06:05:49.186Z,62.80
2018-11-10T06:08:16.866Z,63.90
2018-11-10T06:10:44.535Z,64.00
2018-11-10T06:13:12.248Z,64.00
2018-11-10T06:15:39.882Z,63.90
2018-11-10T06:18:07.554Z,63.90
2018-11-10T06:20:35.194Z,63.80
2018-11-10T06:23:02.882Z,63.90
2018-11-10T06:25:30.526Z,63.80
2018-11-10T06:27:58.198Z,63.90
2018-11-10T06:30:25.852Z,63.80
2018-11-10T06:32:53.522Z,63.90
2018-11-10T06:35:21.174Z,63.90
2018-11-10T06:37:48.850Z,63.90
2018-11-10T06:40:16.506Z,63.90
2018-11-10T06:42:44.368Z,64.00
2018-11-10T06:45:12.021Z,64.00
2018-11-10T06:47:39.842Z,64.10
2018-11-10T06:50:08.562Z,64.10
2018-11-10T06:52:36.343Z,64.00
2018-11-10T06:55:04.430Z,64.00
2018-11-10T06:57:32.065Z,64.00
2018-11-10T06:59:59.730Z,64.00
2018-11-10T07:02:27.586Z,63.90
2018-11-10T07:04:55.352Z,63.80
2018-11-10T07:07:23.303Z,63.80
2018-11-10T07:09:50.982Z,63.80
2018-11-10T07:12:18.666Z,63.80
2018-11-10T07:14:46.322Z,63.80
2018-11-10T07:17:14.031Z,63.90
2018-11-10T07:19:41.862Z,64.00
2018-11-10T07:22:09.640Z,63.90
2018-11-10T07:24:37.314Z,64.00
2018-11-10T07:27:05.230Z,63.90
2018-11-10T07:29:32.918Z,64.00
2018-11-10T07:32:00.631Z,64.00
2018-11-10T07:34:28.321Z,64.00
2018-11-10T07:36:55.962Z,64.00
2018-11-10T07:39:23.667Z,64.00
2018-11-10T07:41:51.340Z,63.80
2018-11-10T07:44:19.010Z,63.90
2018-11-10T07:46:46.650Z,63.90
2018-11-10T07:49:14.369Z,63.90
2018-11-10T07:51:42.044Z,63.90
2018-11-10T07:54:09.714Z,63.90
2018-11-10T07:56:37.362Z,63.90
2018-11-10T07:59:05.274Z,64.60
2018-11-10T08:01:32.938Z,63.90
2018-11-10T08:04:00.606Z,63.90
2018-11-10T08:06:28.256Z,63.80
2018-11-10T08:08:55.930Z,63.70
2018-11-10T08:11:23.657Z,63.80
2018-11-10T08:13:51.339Z,63.90
2018-11-10T08:16:19.042Z,63.90
2018-11-10T08:18:46.725Z,63.90
2018-11-10T08:21:14.400Z,64.10
2018-11-10T08:23:42.066Z,64.00
2018-11-10T08:26:09.714Z,64.10
2018-11-10T08:28:37.392Z,64.10
2018-11-10T08:31:05.121Z,64.10
2018-11-10T08:33:32.822Z,64.00
2018-11-10T08:36:00.484Z,64.00
2018-11-10T08:38:28.161Z,64.00
2018-11-10T08:40:55.831Z,64.00
2018-11-10T08:43:23.504Z,63.90
2018-11-10T08:45:51.146Z,63.90
2018-11-10T08:48:18.798Z,61.30
2018-11-10T08:50:46.474Z,63.90
2018-11-10T08:53:14.142Z,64.00
2018-11-10T08:55:41.825Z,63.90
2018-11-10T08:58:09.465Z,64.00
2018-11-10T09:00:37.134Z,64.00
2018-11-10T09:03:04.871Z,64.00
2018-11-10T09:05:32.554Z,64.00
2018-11-10T09:08:00.202Z,63.90
2018-11-10T09:10:27.893Z,63.90
2018-11-10T09:12:55.542Z,63.90
2018-11-10T09:15:23.211Z,63.90
2018-11-10T09:17:50.924Z,63.90
2018-11-10T09:20:18.583Z,63.90
2018-11-10T09:22:46.267Z,63.90
2018-11-10T09:25:15.122Z,63.80
2018-11-10T09:27:42.766Z,63.90
2018-11-10T09:30:11.750Z,64.00
2018-11-10T09:32:39.638Z,64.00
2018-11-10T09:35:08.139Z,63.90
2018-11-10T09:37:35.821Z,63.90
2018-11-10T09:40:03.555Z,64.00
2018-11-10T09:42:31.465Z,63.80
2018-11-10T09:44:59.094Z,64.00
2018-11-10T09:47:26.742Z,63.90
2018-11-10T09:49:54.486Z,64.00
2018-11-10T09:52:22.132Z,64.00
2018-11-10T09:54:49.809Z,64.10
2018-11-10T09:57:17.470Z,64.00
2018-11-10T09:59:45.146Z,64.00
2018-11-10T10:02:13.158Z,63.90
2018-11-10T10:04:40.511Z,64.00
2018-11-10T10:07:08.171Z,64.00
2018-11-10T10:09:35.885Z,63.90
2018-11-10T10:12:04.430Z,64.00
2018-11-10T10:14:32.108Z,64.00
2018-11-10T10:16:59.778Z,63.90
2018-11-10T10:19:27.450Z,63.90
2018-11-10T10:21:55.171Z,63.90
2018-11-10T10:24:22.795Z,63.90
2018-11-10T10:26:50.462Z,63.90
2018-11-10T10:29:18.126Z,63.90
2018-11-10T10:31:45.807Z,63.90
2018-11-10T10:34:13.479Z,63.80
2018-11-10T10:36:41.185Z,63.90
2018-11-10T10:39:09.430Z,63.90
2018-11-10T10:41:37.514Z,63.90
2018-11-10T10:44:05.492Z,63.80
2018-11-10T10:46:33.167Z,63.80
2018-11-10T10:49:00.954Z,63.90
2018-11-10T10:51:28.542Z,63.70
2018-11-10T10:53:56.190Z,63.80
2018-11-10T10:56:23.970Z,63.70
2018-11-10T10:58:51.565Z,63.80
2018-11-10T11:01:24.667Z,63.60
2018-11-10T11:03:57.734Z,63.70
2018-11-10T11:06:25.401Z,63.70
2018-11-10T11:08:53.687Z,64.00
2018-11-10T11:11:21.443Z,63.90
2018-11-10T11:13:49.082Z,63.90
2018-11-10T11:16:16.742Z,63.90
2018-11-10T11:18:44.398Z,64.00
2018-11-10T11:21:12.095Z,63.90
2018-11-10T11:23:39.751Z,63.80
2018-11-10T11:26:07.438Z,63.80
2018-11-10T11:28:35.100Z,63.80
2018-11-10T11:31:02.824Z,63.80
2018-11-10T11:33:30.422Z,63.80
2018-11-10T11:35:58.090Z,63.80
2018-11-10T11:38:25.750Z,63.80
2018-11-10T11:40:53.427Z,63.80
2018-11-10T11:43:21.083Z,63.80
2018-11-10T11:45:48.810Z,63.90
2018-11-10T11:48:16.454Z,63.80
2018-11-10T11:50:44.128Z,63.90
2018-11-10T11:58:08.989Z,63.40
2018-11-10T12:03:05.387Z,63.50
2018-11-10T12:05:33.804Z,63.50
2018-11-10T12:08:02.246Z,63.40
2018-11-10T12:12:58.756Z,63.50
2018-11-10T12:15:27.220Z,63.50
2018-11-10T12:20:23.690Z,63.50
2018-11-10T12:25:20.601Z,63.70
2018-11-10T12:27:49.035Z,63.90
2018-11-10T12:35:14.326Z,64.30
2018-11-10T12:42:40.793Z,64.40
2018-11-10T12:50:08.119Z,63.70
2018-11-10T12:52:36.520Z,63.40
2018-11-10T12:55:06.349Z,63.30
2018-11-10T12:57:34.755Z,63.00
2018-11-10T13:00:03.175Z,62.90
2018-11-10T13:02:31.585Z,62.60
2018-11-10T13:04:59.970Z,62.40
2018-11-10T13:09:56.518Z,62.20
2018-11-10T13:12:24.923Z,62.20
2018-11-10T13:14:53.323Z,62.00
2018-11-10T13:17:21.864Z,61.90
2018-11-10T13:19:50.246Z,61.90
2018-11-10T13:24:46.752Z,61.80
2018-11-10T13:27:15.236Z,61.80
2018-11-10T13:29:43.614Z,61.70
2018-11-10T13:34:40.159Z,65.70
2018-11-10T13:37:08.583Z,61.80
2018-11-10T13:39:37.083Z,61.70
2018-11-10T13:49:30.216Z,62.70
2018-11-10T13:51:59.060Z,62.70
2018-11-10T14:11:44.085Z,63.70
2018-11-10T14:19:09.066Z,63.60
2018-11-10T14:21:37.471Z,63.60
2018-11-10T14:24:06.395Z,63.60
2018-11-10T14:31:33.099Z,63.50
2018-11-10T14:43:54.474Z,64.10
2018-11-10T14:48:51.047Z,64.10
2018-11-10T14:53:47.566Z,64.10
2018-11-10T14:56:15.967Z,64.10
2018-11-10T14:58:44.418Z,64.10
2018-11-10T15:03:40.906Z,64.10
2018-11-10T15:06:09.362Z,64.10
2018-11-10T15:11:06.491Z,64.10
2018-11-10T15:18:31.198Z,64.00
2018-11-10T15:23:27.634Z,64.00
2018-11-10T15:25:56.168Z,64.10
2018-11-10T15:30:52.670Z,64.00
2018-11-10T15:33:21.057Z,64.00
2018-11-10T15:35:49.487Z,64.00
2018-11-10T15:38:17.875Z,64.00
2018-11-10T15:40:46.278Z,64.00
2018-11-10T15:43:14.675Z,64.60
2018-11-10T15:45:43.111Z,64.70
2018-11-10T17:07:19.822Z,63.50
2018-11-10T17:09:48.223Z,63.50
2018-11-10T17:12:16.638Z,63.50
2018-11-10T17:17:13.174Z,63.50
2018-11-10T17:19:41.571Z,63.40
2018-11-10T17:22:10.035Z,63.40
2018-11-10T17:27:06.875Z,63.50
2018-11-10T17:32:03.338Z,63.50
2018-11-10T17:36:59.838Z,63.50
2018-11-10T17:39:28.298Z,63.50
2018-11-10T17:41:56.733Z,63.60
2018-11-10T17:46:53.230Z,63.50
2018-11-10T17:49:21.647Z,63.50
2018-11-10T17:51:50.093Z,63.50
2018-11-10T17:54:18.503Z,63.60
2018-11-10T17:59:15.027Z,63.60
2018-11-10T18:01:43.555Z,63.50
2018-11-10T18:04:11.852Z,63.50
2018-11-10T18:06:40.508Z,63.50
2018-11-10T18:11:38.363Z,63.50
2018-11-10T18:14:06.920Z,63.50
2018-11-10T18:16:35.340Z,63.50
2018-11-10T18:21:32.071Z,63.50
2018-11-10T18:28:56.714Z,63.60
2018-11-10T18:43:50.727Z,63.50
2018-11-10T18:53:43.504Z,63.40
2018-11-10T18:56:11.905Z,63.40
2018-11-10T18:58:40.315Z,63.40
2018-11-10T19:03:36.859Z,63.40
2018-11-10T19:06:05.275Z,63.40
2018-11-10T19:08:33.683Z,63.30
2018-11-10T19:13:30.180Z,63.30
2018-11-10T19:15:58.579Z,63.40
2018-11-10T19:18:27.028Z,63.30
2018-11-10T19:20:55.478Z,63.30
2018-11-10T19:25:52.016Z,63.40
2018-11-10T19:28:20.427Z,63.40
2018-11-10T19:30:48.808Z,63.40
2018-11-10T19:33:17.219Z,63.40
2018-11-10T19:38:13.752Z,63.30
2018-11-10T19:40:42.155Z,63.30
2018-11-10T19:43:10.579Z,63.40
2018-11-10T19:45:38.989Z,63.30
2018-11-10T19:48:07.411Z,63.40
2018-11-10T19:53:03.974Z,63.40
2018-11-10T19:55:32.394Z,63.40
2018-11-10T19:58:00.824Z,63.40
2018-11-10T20:00:29.203Z,63.40
2018-11-10T20:02:57.974Z,63.40
2018-11-10T20:10:22.583Z,63.40
2018-11-10T20:12:51.032Z,63.40
2018-11-10T20:17:47.627Z,63.40
2018-11-10T20:20:17.371Z,63.40
2018-11-10T20:22:45.814Z,63.30
2018-11-10T20:25:16.657Z,63.30
2018-11-10T20:27:45.065Z,63.40
2018-11-10T20:30:15.115Z,63.20
2018-11-10T20:35:12.462Z,63.30
2018-11-10T20:40:11.096Z,63.10
2018-11-10T20:42:39.763Z,63.10
2018-11-10T21:00:01.554Z,63.20
2018-11-10T21:07:26.119Z,63.20
2018-11-10T21:09:54.595Z,63.20
2018-11-10T21:14:51.272Z,63.20
2018-11-10T21:19:47.975Z,63.20
2018-11-10T21:24:44.523Z,63.20
2018-11-10T21:27:12.915Z,63.20
2018-11-10T21:29:41.414Z,63.20
2018-11-10T21:32:10.141Z,63.20
2018-11-10T21:39:34.802Z,63.20
2018-11-10T21:44:31.312Z,63.30
2018-11-10T21:46:59.755Z,63.20
2018-11-10T21:49:28.203Z,63.20
2018-11-10T21:51:56.683Z,60.90
2018-11-10T21:56:53.294Z,63.30
2018-11-10T21:59:21.711Z,63.30
2018-11-10T22:04:18.316Z,63.30
2018-11-10T22:06:46.751Z,63.30
2018-11-10T22:11:44.283Z,63.30
2018-11-10T22:14:12.759Z,63.30
2018-11-10T22:24:05.523Z,63.30
2018-11-10T23:58:00.859Z,63.30
